createdAt,value
2018-04-28T00:02:08.050Z,3.40
2018-04-28T00:04:36.336Z,3.47
2018-04-28T00:07:05.113Z,3.03
2018-04-28T00:09:32.821Z,3.35
2018-04-28T00:12:00.478Z,3.10
2018-04-28T00:14:28.139Z,3.50
2018-04-28T00:30:26.951Z,3.62
2018-04-28T00:32:54.621Z,3.60
2018-04-28T00:35:26.275Z,3.40
2018-04-28T00:37:59.371Z,3.33
2018-04-28T00:40:45.765Z,3.62
2018-04-28T00:43:16.358Z,3.40
2018-04-28T00:45:50.412Z,3.65
2018-04-28T00:48:33.010Z,3.28
2018-04-28T00:51:04.389Z,3.58
2018-04-28T00:53:32.087Z,3.60
2018-04-28T00:56:05.790Z,3.95
2018-04-28T00:58:38.029Z,3.80
2018-04-28T01:01:14.759Z,4.03
2018-04-28T01:03:44.338Z,3.62
2018-04-28T01:06:11.954Z,3.87
2018-04-28T01:08:40.960Z,3.50
2018-04-28T01:11:09.423Z,3.80
2018-04-28T01:13:41.536Z,3.70
2018-04-28T01:16:09.880Z,4.00
2018-04-28T01:18:49.891Z,3.83
2018-04-28T01:21:21.111Z,3.70
2018-04-28T01:23:49.541Z,3.53
2018-04-28T01:26:24.797Z,3.65
2018-04-28T01:29:08.114Z,3.90
2018-04-28T01:31:38.661Z,4.10
2018-04-28T01:34:18.897Z,3.65
2018-04-28T01:50:33.052Z,3.72
2018-04-28T01:53:00.760Z,3.83
2018-04-28T01:55:30.483Z,3.87
2018-04-28T01:58:08.414Z,4.25
2018-04-28T02:00:51.531Z,4.03
2018-04-28T02:03:25.872Z,3.97
2018-04-28T02:06:02.207Z,3.65
2018-04-28T02:08:29.890Z,4.28
2018-04-28T02:11:01.454Z,3.90
2018-04-28T02:13:39.339Z,4.00
2018-04-28T02:30:00.750Z,4.18
2018-04-28T02:32:30.563Z,4.10
2018-04-28T02:35:18.862Z,3.90
2018-04-28T02:38:02.191Z,3.87
2018-04-28T02:53:55.589Z,3.90
2018-04-28T02:56:33.383Z,4.40
2018-04-28T03:12:23.442Z,4.60
2018-04-28T03:14:54.091Z,4.30
2018-04-28T03:17:32.610Z,3.97
2018-04-28T03:20:02.632Z,4.35
2018-04-28T03:22:31.110Z,4.30
2018-04-28T03:38:32.869Z,3.80
2018-04-28T03:41:03.682Z,3.97
2018-04-28T03:43:31.657Z,4.20
2018-04-28T03:46:29.936Z,4.20
2018-04-28T03:49:03.821Z,4.05
2018-04-28T03:51:34.077Z,4.25
2018-04-28T03:54:08.281Z,4.22
2018-04-28T03:56:37.665Z,4.20
2018-04-28T03:59:17.258Z,4.55
2018-04-28T04:01:56.690Z,4.12
2018-04-28T04:04:29.129Z,4.20
2018-04-28T04:07:20.498Z,4.35
2018-04-28T04:09:50.143Z,4.25
2018-04-28T04:12:38.986Z,4.40
2018-04-28T04:15:09.539Z,4.40
2018-04-28T04:17:45.453Z,3.83
2018-04-28T04:20:34.139Z,4.35
2018-04-28T04:36:33.032Z,4.53
2018-04-28T04:39:11.072Z,4.20
2018-04-28T04:41:45.842Z,4.10
2018-04-28T04:44:19.100Z,4.25
2018-04-28T04:50:08.476Z,4.18
2018-04-28T04:52:39.858Z,4.50
2018-04-28T04:55:21.028Z,4.45
2018-04-28T04:58:15.607Z,4.22
2018-04-28T05:00:53.732Z,4.32
2018-04-28T05:16:55.737Z,4.12
2018-04-28T05:19:30.616Z,4.25
2018-04-28T05:22:09.674Z,4.18
2018-04-28T05:24:49.849Z,4.50
2018-04-28T05:27:24.551Z,4.30
2018-04-28T05:43:44.034Z,4.53
2018-04-28T05:46:36.586Z,4.37
2018-04-28T05:49:26.163Z,4.60
2018-04-28T06:05:44.877Z,4.37
2018-04-28T06:11:11.853Z,4.73
2018-04-28T06:13:48.286Z,4.55
2018-04-28T06:16:32.305Z,4.22
2018-04-28T06:19:05.686Z,4.20
2018-04-28T06:21:34.109Z,3.90
2018-04-28T06:24:03.428Z,4.22
2018-04-28T06:26:31.096Z,4.25
2018-04-28T06:29:00.026Z,4.10
2018-04-28T06:31:27.721Z,3.30
2018-04-28T06:33:55.546Z,3.50
2018-04-28T06:36:23.998Z,3.67
2018-04-28T06:38:51.887Z,3.60
2018-04-28T06:41:19.532Z,3.53
2018-04-28T06:43:47.217Z,3.67
2018-04-28T06:46:14.877Z,3.67
2018-04-28T06:48:42.561Z,3.58
2018-04-28T06:51:10.349Z,3.57
2018-04-28T06:53:38.239Z,3.33
2018-04-28T06:56:05.864Z,3.78
2018-04-28T06:58:34.358Z,3.53
2018-04-28T07:01:02.966Z,3.40
2018-04-28T07:03:30.594Z,3.30
2018-04-28T07:05:59.030Z,3.67
2018-04-28T07:08:27.122Z,3.35
2018-04-28T07:10:54.835Z,3.40
2018-04-28T07:13:24.928Z,3.33
2018-04-28T07:15:52.601Z,3.35
2018-04-28T07:18:20.254Z,3.40
2018-04-28T07:20:48.532Z,2.97
2018-04-28T07:23:17.005Z,3.20
2018-04-28T07:25:44.638Z,3.17
2018-04-28T07:28:12.284Z,3.00
2018-04-28T07:30:40.763Z,3.08
2018-04-28T07:33:08.443Z,2.63
2018-04-28T07:35:37.949Z,3.20
2018-04-28T07:38:07.245Z,2.70
2018-04-28T07:40:35.691Z,2.65
2018-04-28T08:42:03.391Z,1.80
2018-04-28T08:44:31.093Z,2.10
2018-04-28T08:46:58.792Z,1.77
2018-04-28T08:49:26.423Z,2.03
2018-04-28T08:51:54.018Z,2.03
2018-04-28T08:54:21.616Z,1.77
2018-04-28T08:56:50.014Z,1.95
2018-04-28T08:59:17.704Z,1.40
2018-04-28T09:01:45.388Z,2.10
2018-04-28T09:04:13.035Z,1.80
2018-04-28T09:06:41.316Z,1.62
2018-04-28T09:09:08.928Z,1.77
2018-04-28T09:11:36.565Z,1.62
2018-04-28T09:14:04.169Z,1.60
2018-04-28T09:16:31.753Z,1.77
2018-04-28T09:18:59.405Z,1.50
2018-04-28T09:21:27.184Z,1.77
2018-04-28T09:23:55.535Z,1.45
2018-04-28T09:26:23.176Z,1.48
2018-04-28T09:28:50.870Z,1.48
2018-04-28T09:31:18.477Z,1.40
2018-04-28T09:33:46.110Z,1.35
2018-04-28T09:36:13.703Z,1.42
2018-04-28T09:38:42.091Z,1.35
2018-04-28T09:41:09.733Z,1.48
2018-04-28T09:43:37.325Z,1.45
2018-04-28T09:46:04.961Z,1.37
2018-04-28T09:48:32.557Z,1.45
2018-04-28T09:51:00.964Z,1.40
2018-04-28T09:53:28.567Z,1.42
2018-04-28T09:55:56.200Z,1.33
2018-04-28T09:58:23.797Z,1.20
2018-04-28T10:00:51.432Z,1.27
2018-04-28T10:03:21.944Z,1.20
2018-04-28T10:05:49.646Z,1.30
2018-04-28T10:08:17.986Z,1.20
2018-04-28T10:10:45.596Z,1.20
2018-04-28T10:13:13.192Z,1.30
2018-04-28T10:15:40.824Z,1.30
2018-04-28T10:18:08.440Z,1.20
2018-04-28T10:20:36.896Z,1.05
2018-04-28T10:23:04.497Z,1.10
2018-04-28T10:25:32.897Z,1.20
2018-04-28T10:28:00.490Z,1.05
2018-04-28T10:30:28.122Z,1.10
2018-04-28T10:32:55.771Z,0.82
2018-04-28T10:35:24.168Z,1.05
2018-04-28T10:37:51.809Z,0.93
2018-04-28T10:40:21.061Z,0.90
2018-04-28T10:42:48.743Z,1.00
2018-04-28T10:45:16.400Z,1.10
2018-04-28T10:47:44.351Z,0.93
2018-04-28T10:50:12.001Z,1.23
2018-04-28T10:52:40.360Z,1.20
2018-04-28T10:55:07.948Z,1.10
2018-04-28T10:57:36.371Z,1.00
2018-04-28T11:00:03.979Z,1.30
2018-04-28T11:02:31.601Z,1.10
2018-04-28T11:04:59.228Z,0.88
2018-04-28T11:07:27.672Z,0.85
2018-04-28T11:09:55.317Z,1.15
2018-04-28T11:12:22.943Z,1.20
2018-04-28T11:14:51.297Z,1.20
2018-04-28T11:17:18.893Z,1.00
2018-04-28T11:19:47.293Z,1.10
2018-04-28T11:22:14.928Z,0.77
2018-04-28T11:24:42.928Z,0.90
2018-04-28T11:27:10.529Z,0.90
2018-04-28T11:29:38.131Z,1.00
2018-04-28T11:32:05.769Z,1.05
2018-04-28T11:34:33.344Z,0.88
2018-04-28T11:37:00.957Z,0.98
2018-04-28T11:39:29.370Z,0.80
2018-04-28T11:41:57.003Z,0.90
2018-04-28T11:44:25.403Z,1.00
2018-04-28T11:46:52.989Z,0.60
2018-04-28T11:49:20.605Z,0.70
2018-04-28T11:51:48.209Z,0.80
2018-04-28T11:54:15.840Z,0.40
2018-04-28T11:56:44.580Z,0.55
2018-04-28T11:59:12.197Z,0.57
2018-04-28T12:01:39.781Z,0.80
2018-04-28T12:04:07.633Z,0.55
2018-04-28T12:06:36.009Z,0.60
2018-04-28T12:09:03.618Z,0.50
2018-04-28T12:11:31.272Z,0.47
2018-04-28T12:13:58.881Z,0.60
2018-04-28T12:16:26.510Z,0.60
2018-04-28T12:18:54.124Z,0.60
2018-04-28T12:21:21.715Z,0.50
2018-04-28T12:23:50.131Z,0.40
2018-04-28T12:26:17.785Z,0.50
2018-04-28T12:28:45.755Z,0.60
2018-04-28T12:31:13.355Z,0.70
2018-04-28T12:33:40.970Z,0.70
2018-04-28T12:36:09.347Z,0.60
2018-04-28T12:38:36.932Z,0.40
2018-04-28T12:41:05.326Z,0.35
2018-04-28T12:43:32.984Z,0.45
2018-04-28T12:46:01.376Z,0.50
2018-04-28T12:48:28.976Z,0.40
2018-04-28T12:50:56.600Z,0.50
2018-04-28T12:53:25.058Z,0.50
2018-04-28T12:55:52.687Z,0.60
2018-04-28T12:58:20.317Z,0.50
2018-04-28T13:00:48.728Z,0.35
2018-04-28T13:03:16.337Z,0.40
2018-04-28T13:05:43.946Z,0.40
2018-04-28T13:08:11.580Z,0.43
2018-04-28T13:10:39.970Z,0.50
2018-04-28T13:13:08.365Z,0.50
2018-04-28T13:15:36.732Z,0.50
2018-04-28T13:18:05.104Z,0.70
2018-04-28T13:20:32.732Z,0.40
2018-04-28T13:23:00.343Z,0.50
2018-04-28T13:25:28.004Z,0.50
2018-04-28T13:27:55.586Z,0.50
2018-04-28T13:30:23.981Z,0.60
2018-04-28T13:32:51.581Z,0.52
2018-04-28T13:35:19.217Z,0.40
2018-04-28T13:37:46.874Z,0.65
2018-04-28T13:40:15.344Z,0.50
2018-04-28T13:42:43.763Z,0.50
2018-04-28T13:45:11.354Z,0.40
2018-04-28T13:47:38.983Z,0.50
2018-04-28T13:50:06.924Z,0.40
2018-04-28T13:52:34.546Z,0.40
2018-04-28T13:55:02.171Z,0.43
2018-04-28T13:57:29.813Z,0.50
2018-04-28T13:59:58.179Z,0.50
2018-04-28T14:02:26.038Z,0.50
2018-04-28T14:04:53.654Z,0.40
2018-04-28T14:07:21.634Z,0.40
2018-04-28T14:09:49.259Z,0.43
2018-04-28T14:12:17.001Z,0.35
2018-04-28T14:14:44.604Z,0.30
2018-04-28T14:17:13.011Z,0.32
2018-04-28T14:19:40.638Z,0.37
2018-04-28T14:22:08.284Z,0.32
2018-04-28T14:24:35.931Z,0.40
2018-04-28T14:27:03.575Z,0.30
2018-04-28T14:29:31.176Z,0.30
2018-04-28T14:31:59.542Z,0.43
2018-04-28T14:34:28.533Z,0.40
2018-04-28T14:36:56.136Z,0.30
2018-04-28T14:39:23.863Z,0.30
2018-04-28T14:41:52.246Z,0.30
2018-04-28T14:44:19.904Z,0.43
2018-04-28T14:46:48.270Z,0.30
2018-04-28T14:49:17.323Z,0.40
2018-04-28T14:51:45.040Z,0.30
2018-04-28T14:54:12.685Z,0.30
2018-04-28T14:56:40.342Z,0.50
2018-04-28T14:59:07.976Z,0.43
2018-04-28T15:01:35.583Z,0.30
2018-04-28T15:04:03.239Z,0.50
2018-04-28T15:06:30.866Z,0.43
2018-04-28T15:08:58.535Z,0.37
2018-04-28T15:11:26.153Z,0.35
2018-04-28T15:13:54.606Z,0.30
2018-04-28T15:16:22.274Z,0.60
2018-04-28T15:18:49.938Z,0.40
2018-04-28T15:21:18.303Z,0.40
2018-04-28T15:23:45.924Z,0.50
2018-04-28T15:26:13.560Z,0.40
2018-04-28T15:28:41.178Z,0.50
2018-04-28T15:31:09.585Z,0.50
2018-04-28T15:33:37.746Z,0.50
2018-04-28T15:36:06.175Z,0.60
2018-04-28T15:38:33.779Z,0.40
2018-04-28T15:41:02.876Z,0.50
2018-04-28T15:43:31.252Z,0.47
2018-04-28T15:45:58.875Z,0.40
2018-04-28T15:48:26.531Z,0.40
2018-04-28T15:50:54.189Z,0.50
2018-04-28T15:53:21.803Z,0.50
2018-04-28T15:55:49.431Z,0.40
2018-04-28T15:58:17.084Z,0.37
2018-04-28T16:00:44.714Z,0.50
2018-04-28T16:03:12.366Z,0.50
2018-04-28T16:05:39.970Z,0.40
2018-04-28T16:08:08.345Z,0.50
2018-04-28T16:10:36.747Z,0.45
2018-04-28T16:13:04.364Z,0.57
2018-04-28T16:15:32.040Z,0.60
2018-04-28T16:17:59.683Z,0.50
2018-04-28T16:20:27.289Z,0.57
2018-04-28T16:22:56.198Z,0.60
2018-04-28T16:25:23.884Z,0.52
2018-04-28T16:27:51.667Z,0.57
2018-04-28T16:30:19.316Z,0.60
2018-04-28T16:32:46.925Z,0.67
2018-04-28T16:35:14.863Z,0.47
2018-04-28T16:37:42.472Z,0.40
2018-04-28T16:40:10.089Z,0.60
2018-04-28T16:42:38.515Z,0.50
2018-04-28T16:45:06.144Z,0.40
2018-04-28T16:47:34.107Z,0.55
2018-04-28T16:50:01.719Z,0.75
2018-04-28T16:52:29.350Z,0.60
2018-04-28T16:54:56.997Z,0.50
2018-04-28T16:57:25.414Z,0.70
2018-04-28T16:59:53.034Z,0.60
2018-04-28T17:02:20.676Z,0.70
2018-04-28T17:04:48.308Z,0.50
2018-04-28T17:07:15.964Z,0.70
2018-04-28T17:09:43.589Z,0.50
2018-04-28T17:12:12.550Z,0.60
2018-04-28T17:14:40.316Z,0.60
2018-04-28T17:17:08.631Z,0.60
2018-04-28T17:19:36.234Z,0.57
2018-04-28T17:22:04.631Z,0.50
2018-04-28T17:24:32.420Z,0.60
2018-04-28T17:27:01.056Z,0.70
2018-04-28T17:29:28.689Z,0.60
2018-04-28T17:31:57.309Z,0.70
2018-04-28T17:34:25.109Z,0.60
2018-04-28T17:36:52.728Z,0.80
2018-04-28T17:39:20.437Z,0.70
2018-04-28T17:41:48.095Z,0.70
2018-04-28T17:44:16.473Z,0.70
2018-04-28T17:46:44.858Z,0.77
2018-04-28T17:49:13.301Z,0.60
2018-04-28T17:51:40.893Z,0.80
2018-04-28T17:54:09.334Z,1.10
2018-04-28T17:56:36.983Z,0.82
2018-04-28T17:59:04.611Z,0.70
2018-04-28T18:01:32.222Z,0.80
2018-04-28T18:03:59.881Z,0.70
2018-04-28T18:06:27.550Z,0.77
2018-04-28T18:08:55.153Z,0.80
2018-04-28T18:11:22.843Z,0.80
2018-04-28T18:13:50.463Z,0.75
2018-04-28T18:16:18.232Z,0.90
2018-04-28T18:18:46.736Z,0.80
2018-04-28T18:21:14.359Z,0.85
2018-04-28T18:23:42.023Z,1.00
2018-04-28T18:26:09.721Z,1.42
2018-04-28T18:28:37.323Z,1.40
2018-04-28T18:31:04.965Z,1.30
2018-04-28T18:33:32.904Z,1.30
2018-04-28T18:36:00.529Z,1.20
2018-04-28T18:38:28.140Z,1.37
2018-04-28T18:40:56.313Z,1.20
2018-04-28T18:43:24.691Z,1.27
2018-04-28T18:45:53.171Z,1.20
2018-04-28T18:48:21.576Z,1.12
2018-04-28T18:50:49.191Z,1.00
2018-04-28T18:53:16.836Z,1.00
2018-04-28T18:55:44.614Z,1.20
2018-04-28T18:58:12.241Z,1.00
2018-04-28T19:00:40.737Z,1.20
2018-04-28T19:03:08.438Z,1.10
2018-04-28T19:05:36.078Z,1.07
2018-04-28T19:08:04.481Z,1.30
2018-04-28T19:10:32.148Z,1.00
2018-04-28T19:12:59.776Z,1.30
2018-04-28T19:15:28.170Z,1.12
2018-04-28T19:17:55.856Z,1.30
2018-04-28T19:20:24.402Z,1.10
2018-04-28T19:22:52.020Z,1.10
2018-04-28T19:25:19.663Z,1.30
2018-04-28T19:27:48.319Z,1.20
2018-04-28T19:30:16.600Z,1.30
2018-04-28T19:32:44.283Z,1.30
2018-04-28T19:35:11.978Z,1.50
2018-04-28T19:37:39.625Z,1.40
2018-04-28T19:40:07.245Z,1.40
2018-04-28T19:42:35.115Z,1.45
2018-04-28T19:45:02.741Z,1.30
2018-04-28T19:47:30.419Z,1.70
2018-04-28T19:49:58.079Z,1.45
2018-04-28T19:52:25.693Z,1.48
2018-04-28T19:54:53.389Z,1.75
2018-04-28T19:57:20.997Z,1.67
2018-04-28T19:59:48.619Z,1.50
2018-04-28T20:02:16.233Z,1.70
2018-04-28T20:04:43.881Z,1.60
2018-04-28T20:07:11.482Z,1.83
2018-04-28T20:09:39.182Z,1.80
2018-04-28T20:12:06.904Z,1.85
2018-04-28T20:14:34.505Z,1.80
2018-04-28T20:17:02.140Z,1.85
2018-04-28T20:19:29.737Z,1.87
2018-04-28T20:22:09.616Z,1.90
2018-04-28T20:24:49.812Z,1.70
2018-04-28T20:27:17.639Z,1.80
2018-04-28T20:29:46.024Z,2.10
2018-04-28T20:32:13.727Z,1.90
2018-04-28T20:34:42.092Z,2.00
2018-04-28T20:37:09.720Z,1.77
2018-04-28T20:39:38.135Z,2.00
2018-04-28T20:42:05.784Z,2.17
2018-04-28T20:44:34.186Z,1.90
2018-04-28T20:47:01.825Z,2.33
2018-04-28T20:49:30.221Z,2.00
2018-04-28T20:51:58.596Z,2.30
2018-04-28T20:54:27.013Z,2.08
2018-04-28T20:56:54.624Z,2.30
2018-04-28T20:59:22.281Z,2.20
2018-04-28T21:01:49.938Z,2.17
2018-04-28T21:04:17.548Z,2.37
2018-04-28T21:06:45.952Z,2.25
2018-04-28T21:09:13.571Z,2.00
2018-04-28T21:11:41.231Z,1.90
2018-04-28T21:14:08.830Z,1.90
2018-04-28T21:16:37.239Z,2.27
2018-04-28T21:19:04.885Z,2.37
2018-04-28T21:21:32.528Z,2.22
2018-04-28T21:24:00.169Z,2.03
2018-04-28T21:26:27.816Z,2.20
2018-04-28T21:28:55.428Z,2.30
2018-04-28T21:31:23.093Z,2.20
2018-04-28T21:33:50.723Z,2.58
2018-04-28T21:36:18.368Z,2.30
2018-04-28T21:38:46.036Z,2.30
2018-04-28T21:41:13.640Z,2.45
2018-04-28T21:43:41.294Z,2.15
2018-04-28T21:46:08.943Z,2.65
2018-04-28T21:48:36.569Z,2.40
2018-04-28T21:51:04.152Z,2.30
2018-04-28T21:53:31.798Z,2.55
2018-04-28T21:55:59.390Z,2.35
2018-04-28T21:58:27.784Z,2.50
2018-04-28T22:00:55.437Z,2.25
2018-04-28T22:03:23.806Z,2.40
2018-04-28T22:05:51.449Z,2.10
2018-04-28T22:08:19.081Z,2.37
2018-04-28T22:10:46.731Z,2.15
2018-04-28T22:13:14.343Z,2.00
2018-04-28T22:15:42.589Z,2.30
2018-04-28T22:18:10.228Z,2.10
2018-04-28T22:20:38.594Z,2.10
2018-04-28T22:23:07.017Z,2.45
2018-04-28T22:25:34.686Z,2.12
2018-04-28T22:28:02.355Z,2.45
2018-04-28T22:30:29.993Z,2.17
2018-04-28T22:32:58.366Z,2.35
2018-04-28T22:35:26.766Z,2.40
2018-04-28T22:37:55.162Z,2.40
2018-04-28T22:40:22.789Z,2.47
2018-04-28T22:42:50.382Z,2.22
2018-04-28T22:45:18.782Z,2.42
2018-04-28T22:47:46.438Z,2.37
2018-04-28T22:50:14.080Z,2.22
2018-04-28T22:52:41.693Z,2.33
2018-04-28T22:55:09.319Z,2.20
2018-04-28T22:57:37.676Z,2.10
2018-04-28T23:00:05.577Z,2.30
2018-04-28T23:02:33.944Z,2.47
2018-04-28T23:05:01.612Z,2.30
2018-04-28T23:07:29.288Z,2.58
2018-04-28T23:09:56.884Z,2.60
2018-04-28T23:12:24.503Z,2.85
2018-04-28T23:14:52.092Z,2.30
2018-04-28T23:17:20.503Z,2.70
2018-04-28T23:19:48.099Z,2.65
2018-04-28T23:22:16.660Z,2.35
2018-04-28T23:24:44.291Z,2.40
2018-04-28T23:27:11.878Z,2.33
2018-04-28T23:29:39.515Z,2.65
2018-04-28T23:32:07.104Z,2.50
2018-04-28T23:34:34.969Z,2.67
2018-04-28T23:37:03.356Z,2.60
2018-04-28T23:39:31.759Z,2.42
2018-04-28T23:41:59.397Z,2.62
2018-04-28T23:44:27.781Z,2.70
2018-04-28T23:46:56.147Z,2.40
2018-04-28T23:49:23.790Z,2.60
2018-04-28T23:51:51.403Z,2.60
2018-04-28T23:54:19.797Z,2.47
2018-04-28T23:56:48.168Z,2.50
2018-04-28T23:59:16.539Z,2.70
